HDAM/JIB METAR and TAF weather

Enter ICAO airport designator
Station Type Date Time Source
HDAM METAR 2019/04/25 11:00 UTC NOAA

HDAM 251100Z 11010KT 9999 FEW023 34/24 Q1012


Station Type Date Time Source
HDAM Decoded METAR 2019/04/25 11:00 UTC NOAA

Djibouti \ Ambouli, Djibouti (HDAM) 11-33N 043-10E
Apr 25, 2019 - 07:00 AM EDT / 2019.04.25 1100 UTC
Wind: from the ESE (110 degrees) at 12 MPH (10 KT):0
Visibility: greater than 7 mile(s):0
Sky conditions: mostly clear
Temperature: 93 F (34 C)
Heat index: 104.5 F (40.3 C):1
Dew Point: 75 F (24 C)
Relative Humidity: 56%
Pressure (altimeter): 29.88 in. Hg (1012 hPa)
ob: HDAM 251100Z 11010KT 9999 FEW023 34/24 Q1012
cycle: 11

Station Type Date Time Source
HDAM TAF 2019/04/25 18:03 UTC NOAA

TAF TAF HDAM 251700Z 2518/2618 VRB05KT 9999 FEW020
BECMG 2600/2606 00000KT SCT020
BECMG 2606/2612 08010G15KT SCT023 SCT030

Example: see airport list